Time;durP1;ratioP1;P1;durP2;ratioP2;P2;SDS_P1;SDS_P2;PMS_P1;PMS_P2;Temp;Humidity;BMP_temperature;BMP_pressure;BME280_temperature;BME280_humidity;BME280_pressure;Samples;Min_cycle;Max_cycle;Signal;HPM_P1;HPM_P2
2021/01/12 00:02:22;;;;;;;29.67;15.90;;;;;;;-5.26;94.79;98355.94;4906662;29;20044;-86
2021/01/12 00:04:48;;;;;;;25.23;14.00;;;;;;;-5.25;95.10;98357.59;4923537;29;20029;-84
2021/01/12 00:07:18;;;;;;;26.52;12.45;;;;;;;-5.29;94.63;98351.78;4940803;29;20121;-85
2021/01/12 00:09:44;;;;;;;30.20;12.88;;;;;;;-5.30;94.25;98344.00;4941401;29;20032;-85
2021/01/12 00:12:10;;;;;;;28.92;13.93;;;;;;;-5.36;94.58;98356.22;4922846;29;20095;-86
2021/01/12 00:14:35;;;;;;;29.00;13.90;;;;;;;-5.43;94.43;98345.50;4921822;29;20053;-87
2021/01/12 00:17:06;;;;;;;26.17;12.52;;;;;;;-5.15;94.36;98374.13;4900052;29;20108;-85
2021/01/12 00:19:32;;;;;;;25.15;14.23;;;;;;;-5.17;94.35;98373.50;4936360;29;20031;-86
2021/01/12 00:22:04;;;;;;;28.92;12.77;;;;;;;-5.25;94.49;98374.41;4940499;29;20017;-85
2021/01/12 00:24:30;;;;;;;22.30;12.98;;;;;;;-5.28;94.79;98371.28;4926534;29;20032;-82
2021/01/12 00:26:55;;;;;;;19.70;12.27;;;;;;;-5.33;94.70;98363.84;4942690;29;20040;-84
2021/01/12 00:29:20;;;;;;;24.65;14.30;;;;;;;-5.20;94.01;98361.34;4941723;29;20032;-86
2021/01/12 00:31:46;;;;;;;28.55;12.10;;;;;;;-5.14;94.05;98357.13;4943408;29;20028;-78
2021/01/12 00:34:12;;;;;;;24.90;13.60;;;;;;;-5.20;93.67;98349.88;4943567;29;20027;-82
2021/01/12 00:36:47;;;;;;;27.50;10.93;;;;;;;-5.05;93.56;98362.16;4943373;29;20035;-83
2021/01/12 00:39:13;;;;;;;34.78;12.63;;;;;;;-5.07;93.33;98355.34;4943128;29;20060;-80
2021/01/12 00:41:39;;;;;;;19.30;12.85;;;;;;;-5.07;93.10;98358.00;4943220;29;20028;-83
2021/01/12 00:44:05;;;;;;;25.73;11.90;;;;;;;-5.25;93.14;98357.59;4943288;29;20092;-80
2021/01/12 00:46:32;;;;;;;22.75;11.90;;;;;;;-5.18;93.15;98345.19;4942986;29;20011;-80
2021/01/12 00:48:57;;;;;;;16.52;10.68;;;;;;;-5.25;93.13;98352.25;4942955;29;20024;-81
2021/01/12 00:51:32;;;;;;;25.60;12.25;;;;;;;-5.33;93.03;98353.19;4943043;29;20105;-79
2021/01/12 00:53:57;;;;;;;17.85;9.32;;;;;;;-5.25;93.57;98357.59;4942986;29;20023;-79
2021/01/12 00:56:22;;;;;;;14.32;11.13;;;;;;;-5.58;93.34;98338.50;4926748;29;20036;-80
2021/01/12 00:58:48;;;;;;;19.42;10.88;;;;;;;-5.39;93.68;98348.63;4942950;29;20103;-83
2021/01/12 01:01:13;;;;;;;18.02;12.15;;;;;;;-5.38;93.66;98358.25;4943311;29;20035;-80
2021/01/12 01:03:38;;;;;;;20.05;10.05;;;;;;;-5.17;93.28;98360.16;4942969;29;20008;-82
2021/01/12 01:06:07;;;;;;;23.55;10.80;;;;;;;-5.32;93.14;98346.00;4942731;29;20028;-84
2021/01/12 01:08:32;;;;;;;20.90;10.70;;;;;;;-5.64;93.80;98358.69;4942798;29;20125;-79
2021/01/12 01:11:00;;;;;;;21.92;11.55;;;;;;;-5.74;94.48;98360.81;4942709;29;20008;-80
2021/01/12 01:13:26;;;;;;;27.55;12.15;;;;;;;-5.78;94.73;98356.84;4926254;29;20025;-82
2021/01/12 01:15:51;;;;;;;16.33;10.50;;;;;;;-5.80;94.57;98353.56;4925875;29;20128;-84
2021/01/12 01:18:16;;;;;;;17.95;10.27;;;;;;;-5.84;94.71;98357.59;4926066;29;20016;-84
2021/01/12 01:20:42;;;;;;;20.58;9.65;;;;;;;-5.95;94.68;98352.72;4942175;29;20048;-83
2021/01/12 01:23:07;;;;;;;18.88;9.50;;;;;;;-5.89;94.63;98354.69;4941965;29;20036;-82
2021/01/12 01:25:32;;;;;;;16.00;10.45;;;;;;;-5.87;94.25;98350.00;4941799;29;20095;-84
2021/01/12 01:27:58;;;;;;;17.40;10.07;;;;;;;-5.75;93.82;98359.16;4925259;29;20096;-79
2021/01/12 01:30:23;;;;;;;14.20;9.13;;;;;;;-5.77;93.74;98358.53;4942054;29;20059;-84
2021/01/12 01:32:49;;;;;;;18.10;10.07;;;;;;;-5.81;93.37;98338.59;4925239;29;20024;-86
2021/01/12 01:35:14;;;;;;;17.88;9.32;;;;;;;-5.72;92.87;98364.13;4941703;29;20033;-81
2021/01/12 01:37:40;;;;;;;16.35;8.82;;;;;;;-5.92;93.28;98355.06;4925199;29;20622;-80
2021/01/12 01:40:06;;;;;;;15.02;9.98;;;;;;;-5.80;93.42;98350.06;4941223;29;20036;-84
2021/01/12 01:42:31;;;;;;;13.23;8.88;;;;;;;-5.76;93.60;98346.03;4922832;29;20008;-85
2021/01/12 01:44:57;;;;;;;15.18;8.82;;;;;;;-5.67;93.53;98339.63;4941060;29;20051;-85
2021/01/12 01:47:24;;;;;;;18.67;10.23;;;;;;;-5.60;93.04;98337.84;4941077;29;20039;-83
2021/01/12 01:49:50;;;;;;;18.48;9.52;;;;;;;-5.77;92.96;98337.22;4923836;29;20032;-83
2021/01/12 01:52:15;;;;;;;17.55;9.63;;;;;;;-5.79;93.44;98333.91;4940477;29;20028;-85
2021/01/12 01:54:41;;;;;;;16.08;9.55;;;;;;;-5.78;93.36;98337.38;4940728;29;20097;-83
2021/01/12 01:57:07;;;;;;;15.52;8.57;;;;;;;-5.81;93.45;98317.28;4940834;29;20031;-85
2021/01/12 01:59:33;;;;;;;18.70;8.80;;;;;;;-5.82;93.75;98322.78;4941216;29;20036;-85
2021/01/12 02:01:58;;;;;;;16.42;8.63;;;;;;;-5.78;93.45;98324.91;4942178;29;20044;-82
2021/01/12 02:04:29;;;;;;;22.60;9.27;;;;;;;-5.64;93.58;98321.41;4941496;29;20020;-82
2021/01/12 02:06:59;;;;;;;16.08;9.43;;;;;;;-5.58;92.95;98320.69;4941696;29;20040;-83
2021/01/12 02:09:30;;;;;;;18.75;10.40;;;;;;;-5.76;93.04;98322.88;4941453;29;20035;-81
2021/01/12 02:12:01;;;;;;;20.33;10.63;;;;;;;-5.91;93.63;98324.75;4925440;29;20016;-79
2021/01/12 02:14:28;;;;;;;18.70;9.40;;;;;;;-5.97;94.22;98326.31;4925285;29;20096;-79
2021/01/12 02:16:56;;;;;;;22.55;10.68;;;;;;;-6.02;94.54;98328.69;4925250;29;20016;-79
2021/01/12 02:19:25;;;;;;;13.20;8.80;;;;;;;-5.94;94.55;98311.78;4940835;29;20016;-82
2021/01/12 02:21:55;;;;;;;25.33;12.65;;;;;;;-5.86;94.21;98306.41;4924732;29;20040;-84
2021/01/12 02:24:21;;;;;;;18.80;10.15;;;;;;;-5.86;94.50;98321.53;4940857;29;20020;-80
2021/01/12 02:26:46;;;;;;;17.83;10.05;;;;;;;-5.83;94.79;98313.16;4941237;29;20028;-81
2021/01/12 02:29:12;;;;;;;22.33;12.10;;;;;;;-5.94;95.10;98313.63;4924782;29;20084;-87
2021/01/12 02:31:39;;;;;;;27.77;12.48;;;;;;;-6.02;95.53;98306.56;4941538;29;20071;-79
2021/01/12 02:34:09;;;;;;;22.15;11.32;;;;;;;-6.02;95.42;98303.91;4940775;29;20016;-84
2021/01/12 02:36:36;;;;;;;20.05;9.82;;;;;;;-5.82;94.94;98296.97;4924101;29;20016;-83
2021/01/12 02:39:02;;;;;;;21.77;10.20;;;;;;;-5.88;94.54;98304.91;4939954;29;20028;-83
2021/01/12 02:41:30;;;;;;;15.18;8.80;;;;;;;-5.93;95.10;98302.81;4939900;29;20047;-85
2021/01/12 02:43:55;;;;;;;14.07;8.20;;;;;;;-6.06;95.03;98289.31;4940094;29;20023;-84
2021/01/12 02:46:21;;;;;;;17.42;10.15;;;;;;;-6.08;95.46;98292.16;4940034;29;20056;-84
2021/01/12 02:48:46;;;;;;;15.02;9.32;;;;;;;-6.03;95.58;98278.28;4940491;29;20038;-86
2021/01/12 02:51:12;;;;;;;26.60;10.95;;;;;;;-5.92;95.29;98280.50;4940615;29;20031;-82
2021/01/12 02:53:37;;;;;;;24.63;10.35;;;;;;;-5.99;95.05;98266.28;4940417;29;20036;-82
2021/01/12 02:56:03;;;;;;;22.17;9.70;;;;;;;-5.99;94.96;98259.13;4941009;29;20021;-81
2021/01/12 02:58:28;;;;;;;23.42;9.32;;;;;;;-5.98;94.86;98270.56;4924523;29;20050;-79
2021/01/12 03:00:54;;;;;;;19.15;10.18;;;;;;;-5.97;94.96;98270.41;4941381;29;20040;-84
2021/01/12 03:03:19;;;;;;;11.15;8.60;;;;;;;-5.92;94.58;98264.53;4924613;29;20059;-81
2021/01/12 03:05:45;;;;;;;15.93;9.85;;;;;;;-5.92;94.98;98264.53;4940666;29;20046;-81
2021/01/12 03:08:11;;;;;;;19.65;10.35;;;;;;;-6.07;95.17;98245.06;4940846;29;20012;-81
2021/01/12 03:10:37;;;;;;;17.02;10.13;;;;;;;-5.90;95.15;98254.53;4940665;29;20024;-80
2021/01/12 03:13:03;;;;;;;26.58;9.95;;;;;;;-5.88;94.96;98259.66;4924430;29;20023;-82
2021/01/12 03:15:28;;;;;;;18.90;10.65;;;;;;;-5.94;94.76;98253.22;4940875;29;20033;-81
2021/01/12 03:17:54;;;;;;;21.73;11.48;;;;;;;-5.70;94.93;98244.91;4940963;29;20040;-81
2021/01/12 03:20:19;;;;;;;21.75;11.50;;;;;;;-5.84;94.14;98235.09;4940900;29;20024;-82
2021/01/12 03:22:44;;;;;;;13.98;8.48;;;;;;;-5.74;94.55;98250.81;4924602;29;20023;-79
2021/01/12 03:25:10;;;;;;;19.75;9.85;;;;;;;-5.70;94.85;98246.78;4940904;29;20035;-80
2021/01/12 03:27:35;;;;;;;18.75;11.18;;;;;;;-5.74;94.98;98235.66;4940919;29;20017;-82
2021/01/12 03:30:03;;;;;;;16.55;9.45;;;;;;;-5.74;94.83;98230.34;4940775;29;20024;-83
2021/01/12 03:32:28;;;;;;;17.98;9.07;;;;;;;-5.75;94.68;98227.84;4941126;29;20023;-80
2021/01/12 03:34:54;;;;;;;17.33;8.80;;;;;;;-5.67;94.42;98231.22;4924651;29;20013;-79
2021/01/12 03:37:19;;;;;;;18.70;10.32;;;;;;;-5.66;94.62;98218.72;4940383;29;20036;-81
2021/01/12 03:39:44;;;;;;;16.10;9.00;;;;;;;-5.53;94.74;98232.22;4924244;29;20138;-88
2021/01/12 03:42:10;;;;;;;18.02;10.38;;;;;;;-5.32;93.92;98226.91;4940214;29;20104;-85
2021/01/12 03:44:35;;;;;;;19.30;9.77;;;;;;;-5.31;93.99;98219.75;4923920;29;20039;-83
2021/01/12 03:47:01;;;;;;;21.60;10.05;;;;;;;-5.22;94.26;98235.44;4924001;29;20032;-81
2021/01/12 03:49:26;;;;;;;20.13;10.70;;;;;;;-5.32;94.39;98224.25;4940242;29;20024;-84
2021/01/12 03:51:51;;;;;;;24.42;11.68;;;;;;;-5.27;95.22;98226.38;4926023;29;20028;-85
2021/01/12 03:54:17;;;;;;;24.85;12.43;;;;;;;-5.38;95.88;98234.84;4943987;29;20016;-81
2021/01/12 03:56:42;;;;;;;21.48;12.02;;;;;;;-5.36;96.28;98235.50;4943853;29;20023;-80
2021/01/12 03:59:08;;;;;;;23.27;11.23;;;;;;;-5.41;96.27;98225.38;4943572;29;20043;-85
2021/01/12 04:01:33;;;;;;;35.30;14.32;;;;;;;-5.52;96.39;98229.38;4944413;29;20012;-80
2021/01/12 04:03:58;;;;;;;23.58;12.77;;;;;;;-5.43;96.70;98230.09;4943241;29;20068;-82
2021/01/12 04:06:24;;;;;;;22.50;12.30;;;;;;;-5.59;96.40;98230.31;4942876;29;20020;-83
2021/01/12 04:08:54;;;;;;;21.95;12.00;;;;;;;-5.67;96.79;98215.25;4926919;29;20084;-83
2021/01/12 04:11:19;;;;;;;27.92;12.73;;;;;;;-5.58;97.29;98219.47;4940953;29;20036;-82
2021/01/12 04:13:45;;;;;;;33.22;13.70;;;;;;;-5.50;97.71;98219.34;4942841;29;20496;-81
2021/01/12 04:16:10;;;;;;;24.27;12.05;;;;;;;-5.65;97.93;98218.56;4943105;29;20072;-81
2021/01/12 04:18:36;;;;;;;22.38;11.52;;;;;;;-5.89;97.81;98216.25;4943435;29;20061;-82
2021/01/12 04:21:02;;;;;;;26.40;13.20;;;;;;;-5.87;98.64;98224.88;4926079;29;20019;-84
2021/01/12 04:23:28;;;;;;;21.73;11.40;;;;;;;-5.95;98.99;98206.31;4943122;29;20008;-85
2021/01/12 04:25:54;;;;;;;22.20;12.07;;;;;;;-5.76;98.81;98221.69;4926587;29;20080;-83
2021/01/12 04:28:19;;;;;;;30.55;13.93;;;;;;;-5.97;98.85;98209.16;4943262;29;20016;-83
2021/01/12 04:30:45;;;;;;;25.60;13.95;;;;;;;-5.85;99.07;98209.50;4943189;29;20024;-85
2021/01/12 04:33:10;;;;;;;20.45;11.30;;;;;;;-6.00;98.53;98208.72;4924571;29;20021;-85
2021/01/12 04:35:36;;;;;;;32.92;12.35;;;;;;;-6.02;99.28;98202.75;4940309;29;20060;-86
2021/01/12 04:38:02;;;;;;;28.15;11.73;;;;;;;-5.98;99.25;98202.19;4924213;29;20036;-88
2021/01/12 04:40:28;;;;;;;18.20;9.52;;;;;;;-6.18;99.50;98200.28;4924175;29;20039;-89
2021/01/12 04:42:55;;;;;;;19.48;10.10;;;;;;;-6.23;99.92;98200.00;4940196;29;20040;-89
2021/01/12 04:45:21;;;;;;;27.38;12.57;;;;;;;-6.24;100.00;98201.84;4941220;29;20004;-81
2021/01/12 04:47:46;;;;;;;21.67;12.75;;;;;;;-6.32;100.00;98193.94;4925452;29;20030;-85
2021/01/12 04:50:11;;;;;;;30.85;14.32;;;;;;;-6.24;100.00;98195.69;4924409;29;20040;-87
2021/01/12 04:52:48;;;;;;;27.95;14.30;;;;;;;-6.14;100.00;98201.56;4925463;29;20032;-85
2021/01/12 04:55:15;;;;;;;27.10;13.65;;;;;;;-6.25;100.00;98189.53;4942312;29;20036;-85
2021/01/12 04:57:40;;;;;;;27.60;12.43;;;;;;;-6.27;100.00;98193.41;4940484;29;20023;-84
2021/01/12 05:00:33;;;;;;;39.47;13.32;;;;;;;-6.30;100.00;98193.78;4940919;29;20134;-83
2021/01/12 05:03:00;;;;;;;32.13;12.98;;;;;;;-6.01;100.00;98193.75;4940420;29;20037;-84
2021/01/12 05:05:46;;;;;;;24.15;12.48;;;;;;;-6.18;99.53;98201.13;4941568;29;20024;-83
2021/01/12 05:08:17;;;;;;;32.55;13.25;;;;;;;-6.39;99.59;98197.53;4924044;29;20064;-84
2021/01/12 05:10:49;;;;;;;27.05;12.82;;;;;;;-6.36;100.00;98186.53;4940176;29;20063;-82
2021/01/12 05:13:18;;;;;;;30.52;14.73;;;;;;;-6.18;99.97;98195.78;4924361;29;20026;-85
2021/01/12 05:15:47;;;;;;;22.10;12.00;;;;;;;-6.10;99.25;98192.19;4941238;29;20051;-85
2021/01/12 05:18:17;;;;;;;24.48;11.35;;;;;;;-6.24;98.93;98191.22;4941421;29;20025;-86
2021/01/12 05:20:44;;;;;;;27.13;11.85;;;;;;;-6.11;98.63;98190.56;4940781;29;20052;-88
2021/01/12 05:23:12;;;;;;;27.38;12.93;;;;;;;-5.93;98.56;98192.84;4924127;29;20028;-89
2021/01/12 05:25:39;;;;;;;25.65;14.48;;;;;;;-5.88;98.01;98180.59;4941380;29;20043;-87
2021/01/12 05:28:10;;;;;;;33.05;13.30;;;;;;;-5.90;98.13;98173.81;4941926;29;20020;-82
2021/01/12 05:30:36;;;;;;;34.42;11.27;;;;;;;-5.75;98.22;98178.06;4941164;29;20028;-84
2021/01/12 05:33:02;;;;;;;27.80;11.52;;;;;;;-5.82;97.83;98177.16;4925599;29;20040;-85
2021/01/12 05:35:38;;;;;;;35.65;14.95;;;;;;;-5.65;98.60;98189.25;4925497;29;20008;-82
2021/01/12 05:38:09;;;;;;;30.40;13.80;;;;;;;-5.52;98.17;98177.94;4941229;29;20024;-86
2021/01/12 05:40:40;;;;;;;29.52;13.55;;;;;;;-5.67;97.51;98185.94;4925094;29;20031;-84
2021/01/12 05:43:13;;;;;;;23.38;13.15;;;;;;;-5.62;97.28;98190.72;4925213;29;20020;-84
2021/01/12 05:45:43;;;;;;;21.70;12.20;;;;;;;-5.65;97.04;98194.59;4941416;29;20047;-82
2021/01/12 05:48:09;;;;;;;27.23;12.70;;;;;;;-5.79;96.87;98184.78;4941457;29;20032;-83
2021/01/12 05:50:36;;;;;;;24.75;14.55;;;;;;;-5.67;97.29;98183.28;4941073;29;20051;-86
2021/01/12 05:53:07;;;;;;;29.88;12.93;;;;;;;-5.98;96.70;98175.56;4939815;29;20023;-84
2021/01/12 05:55:40;;;;;;;29.73;13.68;;;;;;;-6.09;97.46;98167.25;4931243;29;20107;-83
2021/01/12 05:58:19;;;;;;;40.28;16.52;;;;;;;-6.06;98.21;98181.00;4921049;29;20028;-84
2021/01/12 06:00:47;;;;;;;28.95;12.80;;;;;;;-6.23;98.13;98184.03;4924846;29;20028;-85
2021/01/12 06:03:17;;;;;;;29.17;14.25;;;;;;;-6.20;98.24;98171.19;4919366;29;20035;-84
2021/01/12 06:05:48;;;;;;;33.40;17.40;;;;;;;-6.18;97.90;98176.34;4911454;29;20051;-85
2021/01/12 06:08:15;;;;;;;35.60;15.98;;;;;;;-6.22;97.66;98178.53;4908892;29;20040;-85
2021/01/12 06:10:45;;;;;;;33.35;14.98;;;;;;;-5.78;97.79;98181.13;4898036;29;20024;-84
2021/01/12 06:13:13;;;;;;;29.90;15.23;;;;;;;-5.81;97.36;98178.00;4914660;29;20044;-84
2021/01/12 06:15:41;;;;;;;38.05;16.00;;;;;;;-6.07;97.60;98181.19;4902797;29;20560;-86
2021/01/12 06:18:11;;;;;;;25.92;12.88;;;;;;;-6.16;98.29;98180.44;4891161;29;20035;-84
2021/01/12 06:20:55;;;;;;;28.88;13.27;;;;;;;-6.43;99.22;98188.25;4908600;29;20110;-82
2021/01/12 06:23:37;;;;;;;22.77;13.57;;;;;;;-6.38;99.19;98188.53;4914873;29;20040;-85
2021/01/12 06:26:03;;;;;;;45.22;14.00;;;;;;;-6.29;99.43;98176.78;4915966;29;20039;-82
2021/01/12 06:28:28;;;;;;;28.15;12.70;;;;;;;-6.08;99.27;98185.69;4907577;29;20134;-82
2021/01/12 06:30:54;;;;;;;23.45;12.52;;;;;;;-5.88;98.51;98191.25;4889170;29;20040;-83
2021/01/12 06:33:21;;;;;;;30.90;14.50;;;;;;;-5.85;98.06;98188.19;4910260;29;20027;-85
2021/01/12 06:35:50;;;;;;;35.33;13.02;;;;;;;-5.85;98.33;98166.88;4891352;29;20115;-81
2021/01/12 06:38:25;;;;;;;29.20;14.63;;;;;;;-5.80;98.05;98180.47;4898015;29;20027;-85
2021/01/12 06:40:53;;;;;;;27.90;12.35;;;;;;;-5.96;97.59;98172.75;4896899;29;20048;-84
2021/01/12 06:43:24;;;;;;;24.63;13.27;;;;;;;-6.13;97.55;98163.28;4906064;29;20035;-84
2021/01/12 06:45:51;;;;;;;25.13;11.60;;;;;;;-6.13;98.02;98168.59;4915136;29;20044;-81
2021/01/12 06:48:18;;;;;;;30.88;12.00;;;;;;;-5.98;98.20;98174.75;4904249;29;20035;-76
2021/01/12 06:50:45;;;;;;;22.83;10.20;;;;;;;-6.05;98.34;98169.34;4893194;29;20100;-84
2021/01/12 06:53:13;;;;;;;25.60;11.98;;;;;;;-6.19;98.59;98170.19;4894989;29;20038;-84
2021/01/12 06:55:38;;;;;;;35.00;12.38;;;;;;;-6.30;98.63;98160.00;4910849;29;20035;-85
2021/01/12 06:58:08;;;;;;;26.25;13.57;;;;;;;-6.26;99.27;98168.44;4917887;29;20126;-78
2021/01/12 07:00:35;;;;;;;27.35;13.07;;;;;;;-6.10;99.79;98165.56;4917091;29;20071;-85
2021/01/12 07:03:01;;;;;;;31.52;13.65;;;;;;;-5.99;99.28;98178.44;4914926;29;20029;-85
2021/01/12 07:05:47;;;;;;;35.60;16.42;;;;;;;-5.92;97.65;98183.84;4883580;29;20029;-84
2021/01/12 07:08:13;;;;;;;21.40;12.32;;;;;;;-6.02;96.81;98192.13;4889222;29;20395;-83
2021/01/12 07:10:46;;;;;;;30.20;13.23;;;;;;;-5.69;97.28;98193.31;4907906;29;20036;-86
2021/01/12 07:13:12;;;;;;;28.70;12.45;;;;;;;-5.61;96.74;98190.56;4901323;29;20017;-85
2021/01/12 07:15:46;;;;;;;32.60;13.95;;;;;;;-5.69;96.44;98203.13;4917392;29;20109;-85
2021/01/12 07:18:11;;;;;;;48.67;18.05;;;;;;;-5.78;96.43;98204.25;4889988;29;20084;-84
2021/01/12 07:20:38;;;;;;;36.28;14.65;;;;;;;-5.71;96.33;98198.00;4909040;29;20486;-83
2021/01/12 07:23:04;;;;;;;28.10;14.52;;;;;;;-5.75;96.60;98210.03;4881013;29;20028;-86
2021/01/12 07:25:34;;;;;;;27.80;13.77;;;;;;;-5.75;96.22;98207.38;4888879;29;20043;-83
2021/01/12 07:28:02;;;;;;;22.90;12.30;;;;;;;-5.85;95.63;98204.16;4906843;29;20035;-85
2021/01/12 07:30:32;;;;;;;33.20;13.32;;;;;;;-6.06;95.60;98175.69;4894627;29;20032;-84
2021/01/12 07:33:03;;;;;;;24.92;13.13;;;;;;;-5.79;95.04;98208.75;4907629;29;20048;-83
2021/01/12 07:35:33;;;;;;;30.17;13.32;;;;;;;-5.92;95.42;98213.13;4897075;29;20032;-85
2021/01/12 07:37:59;;;;;;;24.25;10.50;;;;;;;-5.47;97.19;98216.31;4898756;29;20457;-86
2021/01/12 07:40:25;;;;;;;28.42;13.60;;;;;;;-6.17;95.15;98200.09;4910916;29;20143;-84
2021/01/12 07:42:54;;;;;;;24.23;12.15;;;;;;;-6.25;96.37;98207.34;4902431;29;20035;-87
2021/01/12 07:45:27;;;;;;;33.75;12.60;;;;;;;-6.25;96.83;98208.16;4910599;29;20035;-84
2021/01/12 07:47:54;;;;;;;30.13;13.23;;;;;;;-6.17;97.18;98215.25;4888978;29;20091;-84
2021/01/12 07:50:28;;;;;;;34.45;13.38;;;;;;;-6.21;96.78;98196.16;4907683;29;20255;-83
2021/01/12 07:52:55;;;;;;;41.67;14.93;;;;;;;-6.20;97.13;98184.47;4910173;29;20632;-85
2021/01/12 07:55:21;;;;;;;30.67;13.82;;;;;;;-6.25;96.75;98173.56;4910060;29;20024;-83
2021/01/12 07:57:50;;;;;;;23.25;12.57;;;;;;;-6.04;96.50;98180.81;4915461;29;20035;-86
2021/01/12 08:00:18;;;;;;;27.20;13.88;;;;;;;-6.09;97.14;98191.19;4913984;29;20028;-84
2021/01/12 08:02:48;;;;;;;32.70;14.43;;;;;;;-6.20;96.94;98187.16;4893735;29;20033;-82
2021/01/12 08:05:15;;;;;;;33.10;14.30;;;;;;;-6.11;96.87;98195.88;4918144;29;20497;-84
2021/01/12 08:07:44;;;;;;;32.42;14.98;;;;;;;-6.23;96.28;98207.97;4903563;29;20098;-86
2021/01/12 08:10:10;;;;;;;28.27;12.50;;;;;;;-5.98;96.04;98204.84;4905125;29;20032;-82
2021/01/12 08:12:36;;;;;;;30.92;13.98;;;;;;;-5.64;95.43;98196.22;4920645;29;20115;-83
2021/01/12 08:15:10;;;;;;;33.92;14.77;;;;;;;-5.52;95.02;98207.25;4904438;29;20102;-82
2021/01/12 08:17:36;;;;;;;47.38;18.13;;;;;;;-5.65;94.84;98212.41;4907150;29;20036;-84
2021/01/12 08:20:05;;;;;;;28.50;14.75;;;;;;;-5.69;94.70;98206.63;4928376;29;20059;-87
2021/01/12 08:22:31;;;;;;;30.50;14.60;;;;;;;-5.64;95.27;98203.41;4890709;29;20051;-86
2021/01/12 08:25:06;;;;;;;28.40;14.13;;;;;;;-5.77;94.62;98208.56;4916343;29;20513;-85
2021/01/12 08:27:32;;;;;;;32.47;14.68;;;;;;;-5.88;94.50;98196.59;4902486;29;20191;-85
2021/01/12 08:30:10;;;;;;;26.23;11.60;;;;;;;-5.84;94.52;98202.34;4922121;29;20521;-86
2021/01/12 08:32:39;;;;;;;28.13;12.30;;;;;;;-5.91;94.25;98202.28;4920329;29;20035;-81
2021/01/12 08:35:11;;;;;;;24.42;12.57;;;;;;;-5.97;93.73;98197.69;4918025;29;20029;-84
2021/01/12 08:37:41;;;;;;;21.55;11.23;;;;;;;-5.88;93.13;98201.06;4900368;29;20485;-82
2021/01/12 08:40:08;;;;;;;30.38;11.23;;;;;;;-5.44;92.23;98205.28;4918349;29;20029;-82
2021/01/12 08:42:38;;;;;;;23.80;12.20;;;;;;;-5.51;91.55;98199.03;4920160;29;20035;-83
2021/01/12 08:45:24;;;;;;;26.70;12.07;;;;;;;-5.59;91.89;98196.50;4901428;29;20036;-84
2021/01/12 08:47:51;;;;;;;27.80;12.77;;;;;;;-5.47;91.57;98194.16;4900384;29;20469;-85
2021/01/12 08:50:17;;;;;;;27.80;13.25;;;;;;;-4.68;87.84;98182.41;4900554;29;20784;-84
2021/01/12 08:52:48;;;;;;;23.60;11.55;;;;;;;-3.31;82.31;98190.34;4901903;29;20039;-87
2021/01/12 08:55:18;;;;;;;23.33;12.02;;;;;;;-2.96;79.02;98180.31;4922528;29;20493;-87
2021/01/12 08:58:01;;;;;;;20.88;11.00;;;;;;;-3.20;79.70;98174.72;4903161;29;20497;-89
2021/01/12 09:00:35;;;;;;;19.85;11.00;;;;;;;-3.38;80.51;98173.44;4917722;29;20036;-86
2021/01/12 09:03:01;;;;;;;23.08;12.80;;;;;;;-2.64;78.92;98172.50;4915521;29;20004;-89
2021/01/12 09:05:31;;;;;;;29.00;11.93;;;;;;;-2.62;78.07;98179.31;4917877;29;20107;-86
2021/01/12 09:08:10;;;;;;;20.40;10.77;;;;;;;-3.52;80.62;98176.28;4904348;29;20406;-86
2021/01/12 09:10:41;;;;;;;28.05;12.02;;;;;;;-3.41;80.52;98183.72;4908434;29;20036;-82
2021/01/12 09:13:09;;;;;;;24.48;13.50;;;;;;;-3.11;80.13;98187.72;4910294;29;20100;-87
2021/01/12 09:15:40;;;;;;;24.83;12.60;;;;;;;-3.47;80.99;98189.84;4902055;29;20060;-87
2021/01/12 09:18:14;;;;;;;23.80;12.48;;;;;;;-3.44;80.74;98189.47;4908340;29;20099;-86
2021/01/12 09:20:39;;;;;;;24.35;12.70;;;;;;;-2.87;79.82;98180.94;4900729;29;20103;-85
2021/01/12 09:23:13;;;;;;;28.00;13.57;;;;;;;-2.70;80.43;98187.56;4892638;29;20064;-87
2021/01/12 09:25:41;;;;;;;24.08;13.00;;;;;;;-1.87;77.84;98173.41;4901916;29;20477;-84
2021/01/12 09:28:12;;;;;;;24.23;12.25;;;;;;;-0.49;72.30;98167.25;4919231;29;20036;-90
2021/01/12 09:30:38;;;;;;;20.70;11.88;;;;;;;0.56;67.29;98171.53;4903051;29;20083;-91
2021/01/12 09:33:04;;;;;;;24.73;12.82;;;;;;;1.44;64.60;98163.63;4898949;29;20065;-90
2021/01/12 09:35:29;;;;;;;27.20;13.40;;;;;;;1.41;62.05;98156.81;4919464;29;20020;-88
2021/01/12 09:37:56;;;;;;;;;;;;;;;1.65;61.17;98163.06;4911663;29;20068;-89
2021/01/12 09:40:21;;;;;;;20.40;12.10;;;;;;;1.94;60.94;98151.31;4933116;29;19925;-85
2021/01/12 09:42:46;;;;;;;23.88;13.45;;;;;;;1.67;61.19;98154.72;4936164;29;20059;-89
2021/01/12 09:45:12;;;;;;;22.33;13.10;;;;;;;1.44;60.06;98150.16;4928761;29;20029;-89
2021/01/12 09:47:37;;;;;;;;;;;;;;;2.37;58.20;98148.25;4900842;29;20402;-91
2021/01/12 09:50:05;;;;;;;17.70;10.82;;;;;;;2.01;59.31;98146.63;4900341;29;19922;-90
2021/01/12 09:52:30;;;;;;;21.35;13.55;;;;;;;1.23;60.57;98150.69;4896603;29;20036;-92
2021/01/12 09:54:56;;;;;;;19.90;12.27;;;;;;;-0.24;63.64;98146.53;4912576;29;20033;-90
2021/01/12 09:57:21;;;;;;;26.80;14.27;;;;;;;0.31;65.22;98149.28;4912334;29;20038;-90
2021/01/12 09:59:46;;;;;;;20.95;11.57;;;;;;;1.06;65.38;98124.44;4893534;29;20061;-88
2021/01/12 10:02:12;;;;;;;21.58;12.80;;;;;;;1.20;61.20;98134.97;4899541;29;20024;-90
2021/01/12 10:04:37;;;;;;;;;;;;;;;1.24;68.05;98131.59;4906520;29;20032;-89
2021/01/12 10:07:03;;;;;;;21.63;12.07;;;;;;;-0.64;69.25;98123.78;4891565;29;19915;-87
2021/01/12 10:09:29;;;;;;;21.25;12.88;;;;;;;-1.51;72.70;98124.59;4908919;29;20051;-88
2021/01/12 10:11:54;;;;;;;;;;;;;;;-1.17;73.15;98112.63;4897418;29;20028;-89
2021/01/12 10:14:26;;;;;;;22.85;12.52;;;;;;;-1.24;72.08;98079.66;4900813;29;19903;-84
2021/01/12 10:16:52;;;;;;;21.38;12.57;;;;;;;-0.88;71.57;98068.25;4905550;29;20043;-83
2021/01/12 10:19:47;;;;;;;22.38;11.35;;;;;;;0.08;69.78;98100.72;4923523;29;20024;-87
2021/01/12 10:22:13;;;;;;;16.55;10.52;;;;;;;0.44;69.50;98055.75;4921896;29;20027;-85
2021/01/12 10:24:38;;;;;;;18.08;10.00;;;;;;;0.81;66.17;98063.72;4905307;29;20037;-84
2021/01/12 10:27:07;;;;;;;;;;;;;;;1.51;63.95;98080.78;4922004;29;20020;-82
2021/01/12 10:29:32;;;;;;;19.35;11.38;;;;;;;0.80;65.69;98072.84;4905882;29;19947;-84
2021/01/12 10:31:59;;;;;;;21.20;11.60;;;;;;;1.09;64.38;98034.28;4906500;29;20052;-85
2021/01/12 10:34:26;;;;;;;22.63;11.15;;;;;;;1.14;63.80;98055.09;4921903;29;20052;-85
2021/01/12 10:36:52;;;;;;;21.48;11.52;;;;;;;0.45;63.63;98037.75;4922117;29;20044;-85
2021/01/12 10:42:52;;;;;;;20.90;11.82;;;;;;;1.21;68.99;98088.97;4923600;29;20059;-85
2021/01/12 10:45:17;;;;;;;17.40;10.30;;;;;;;1.25;68.24;98070.47;4921540;29;20021;-85
2021/01/12 10:47:43;;;;;;;20.50;10.73;;;;;;;0.48;67.15;98058.81;4921252;29;20040;-85
2021/01/12 10:50:20;;;;;;;19.67;12.15;;;;;;;-0.46;68.64;98047.78;4919804;29;20016;-86
2021/01/12 10:52:45;;;;;;;;;;;;;;;-0.96;70.53;98055.06;4904765;29;20032;-86
2021/01/12 10:55:13;;;;;;;20.48;10.65;;;;;;;-1.14;71.46;98031.72;4920508;29;19916;-87
2021/01/12 10:57:45;;;;;;;19.73;11.05;;;;;;;-1.04;71.24;98068.78;4904995;29;20032;-82
2021/01/12 11:00:11;;;;;;;19.35;8.93;;;;;;;-1.19;72.63;98018.13;4904345;29;20024;-86
2021/01/12 11:02:37;;;;;;;19.73;11.77;;;;;;;-1.42;74.66;98016.03;4925274;29;20033;-88
2021/01/12 11:05:03;;;;;;;20.05;9.45;;;;;;;-1.64;74.73;98001.34;4909353;29;20039;-82
2021/01/12 11:07:31;;;;;;;20.17;11.55;;;;;;;-2.14;75.20;97987.00;4925854;29;20089;-84
2021/01/12 11:09:57;;;;;;;24.33;11.43;;;;;;;-1.85;75.33;97977.56;4925657;29;20092;-83
2021/01/12 11:12:23;;;;;;;18.25;11.35;;;;;;;-1.92;75.39;98000.91;4925784;29;20013;-83
2021/01/12 11:14:48;;;;;;;21.88;11.45;;;;;;;-1.79;75.43;97971.34;4925372;29;20072;-83
2021/01/12 11:17:14;;;;;;;21.27;12.60;;;;;;;-1.66;75.63;97973.94;4909408;29;20039;-83
2021/01/12 11:19:43;;;;;;;23.38;13.52;;;;;;;-2.11;75.13;97945.56;4924818;29;20035;-84
2021/01/12 11:22:09;;;;;;;20.42;11.35;;;;;;;-2.14;76.10;97946.00;4924383;29;20029;-88
2021/01/12 11:24:38;;;;;;;24.70;12.20;;;;;;;-2.49;77.45;97951.75;4907801;29;20109;-88
2021/01/12 11:27:05;;;;;;;21.95;12.48;;;;;;;-2.33;78.47;97943.22;4924674;29;20075;-88